createdAt,value
2023-03-17T00:01:57.667Z,14.50
2023-03-17T00:04:28.805Z,17.27
2023-03-17T00:06:57.990Z,15.05
2023-03-17T00:09:26.512Z,12.60
2023-03-17T00:11:54.835Z,11.35
2023-03-17T00:14:23.772Z,11.98
2023-03-17T00:16:53.849Z,11.65
2023-03-17T00:19:27.628Z,11.27
2023-03-17T00:21:57.441Z,10.35
2023-03-17T00:24:25.937Z,10.25
2023-03-17T00:26:54.290Z,10.20
2023-03-17T00:29:22.672Z,10.93
2023-03-17T00:31:51.981Z,9.77
2023-03-17T00:34:25.289Z,9.50
2023-03-17T00:36:53.617Z,10.98
2023-03-17T00:39:27.325Z,9.98
2023-03-17T00:41:56.357Z,9.82
2023-03-17T00:44:25.573Z,11.02
2023-03-17T00:46:56.578Z,9.13
2023-03-17T00:49:26.820Z,10.68
2023-03-17T00:51:55.427Z,9.80
2023-03-17T00:54:25.217Z,9.82
2023-03-17T00:56:53.735Z,9.90
2023-03-17T00:59:27.486Z,10.60
2023-03-17T01:01:56.527Z,9.63
2023-03-17T01:04:25.582Z,9.63
2023-03-17T01:06:54.854Z,9.55
2023-03-17T01:09:28.417Z,10.25
2023-03-17T01:11:59.821Z,9.27
2023-03-17T01:14:28.240Z,11.07
2023-03-17T01:16:56.918Z,8.85
2023-03-17T01:19:25.315Z,8.65
2023-03-17T01:21:53.668Z,7.88
2023-03-17T01:24:22.246Z,8.60
2023-03-17T01:26:51.973Z,8.48
2023-03-17T01:29:20.267Z,9.05
2023-03-17T01:31:48.690Z,7.03
2023-03-17T01:34:16.998Z,9.27
2023-03-17T01:36:45.609Z,8.48
2023-03-17T01:39:16.145Z,8.30
2023-03-17T01:41:45.619Z,8.77
2023-03-17T01:44:18.673Z,8.85
2023-03-17T01:46:47.560Z,8.15
2023-03-17T01:49:29.385Z,7.80
2023-03-17T01:52:06.175Z,7.97
2023-03-17T01:54:42.784Z,8.38
2023-03-17T01:57:17.933Z,8.18
2023-03-17T01:59:51.980Z,8.40
2023-03-17T02:02:24.598Z,8.23
2023-03-17T02:04:54.113Z,8.25
2023-03-17T02:07:24.487Z,7.57
2023-03-17T02:12:42.924Z,7.65
2023-03-17T02:15:13.617Z,8.25
2023-03-17T02:17:42.474Z,7.45
2023-03-17T02:20:29.510Z,7.80
2023-03-17T02:23:00.172Z,8.15
2023-03-17T02:25:31.608Z,8.23
2023-03-17T02:28:06.503Z,8.45
2023-03-17T02:30:36.995Z,8.27
2023-03-17T02:33:06.034Z,8.15
2023-03-17T02:35:34.577Z,8.13
2023-03-17T02:38:04.523Z,7.80
2023-03-17T02:40:33.273Z,7.85
2023-03-17T02:43:02.431Z,9.32
2023-03-17T02:45:31.159Z,8.77
2023-03-17T02:47:59.698Z,7.82
2023-03-17T02:50:29.688Z,8.45
2023-03-17T02:52:58.639Z,7.80
2023-03-17T02:55:28.279Z,8.05
2023-03-17T02:57:56.780Z,7.90
2023-03-17T03:00:25.056Z,9.63
2023-03-17T03:02:53.440Z,9.02
2023-03-17T03:05:21.823Z,9.52
2023-03-17T03:07:51.464Z,8.07
2023-03-17T03:10:19.868Z,8.10
2023-03-17T03:12:49.731Z,8.02
2023-03-17T03:15:18.070Z,9.50
2023-03-17T03:17:46.686Z,8.70
2023-03-17T03:20:15.011Z,8.18
2023-03-17T03:22:43.294Z,8.50
2023-03-17T03:25:12.139Z,8.70
2023-03-17T03:27:41.569Z,8.23
2023-03-17T03:30:12.791Z,7.22
2023-03-17T03:32:41.019Z,7.90
2023-03-17T03:35:10.568Z,8.30
2023-03-17T03:37:38.811Z,8.18
2023-03-17T03:40:09.176Z,7.40
2023-03-17T03:42:37.440Z,9.48
2023-03-17T03:45:06.525Z,6.18
2023-03-17T03:47:36.097Z,6.70
2023-03-17T03:50:04.327Z,8.45
2023-03-17T03:52:32.580Z,8.32
2023-03-17T03:55:01.039Z,7.68
2023-03-17T03:57:29.338Z,7.60
2023-03-17T03:59:57.612Z,8.48
2023-03-17T04:02:25.899Z,8.50
2023-03-17T04:04:55.898Z,8.07
2023-03-17T04:07:24.216Z,9.35
2023-03-17T04:09:52.635Z,9.50
2023-03-17T04:12:20.892Z,7.57
2023-03-17T04:14:49.161Z,8.55
2023-03-17T04:17:17.965Z,8.18
2023-03-17T04:19:46.440Z,7.53
2023-03-17T04:22:16.546Z,7.78
2023-03-17T04:24:44.910Z,8.32
2023-03-17T04:27:15.495Z,10.20
2023-03-17T04:29:44.385Z,8.40
2023-03-17T04:32:14.883Z,9.70
2023-03-17T04:34:43.950Z,8.30
2023-03-17T04:37:12.674Z,8.38
2023-03-17T04:39:42.302Z,8.13
2023-03-17T04:42:11.324Z,8.00
2023-03-17T04:44:39.868Z,8.80
2023-03-17T04:47:08.411Z,8.05
2023-03-17T04:49:36.603Z,8.20
2023-03-17T04:52:05.088Z,9.75
2023-03-17T04:54:33.459Z,8.10
2023-03-17T04:57:03.119Z,10.50
2023-03-17T04:59:31.411Z,9.43
2023-03-17T05:01:59.646Z,8.30
2023-03-17T05:04:31.771Z,9.15
2023-03-17T05:07:00.536Z,8.98
2023-03-17T05:09:29.512Z,9.95
2023-03-17T05:11:57.889Z,8.77
2023-03-17T05:14:27.517Z,9.07
2023-03-17T05:16:55.953Z,8.77
2023-03-17T05:19:24.280Z,9.75
2023-03-17T05:21:52.479Z,8.50
2023-03-17T05:24:21.063Z,8.48
2023-03-17T05:26:49.243Z,9.20
2023-03-17T05:29:17.678Z,9.30
2023-03-17T05:31:47.443Z,8.30
2023-03-17T05:34:16.065Z,8.73
2023-03-17T05:36:44.732Z,8.57
2023-03-17T05:39:14.577Z,9.55
2023-03-17T05:41:43.073Z,9.40
2023-03-17T05:44:11.521Z,8.95
2023-03-17T05:46:39.849Z,8.82
2023-03-17T05:49:10.115Z,8.90
2023-03-17T05:51:38.357Z,9.07
2023-03-17T05:54:07.388Z,9.23
2023-03-17T05:56:36.010Z,10.85
2023-03-17T05:59:04.954Z,11.18
2023-03-17T06:01:33.304Z,11.88
2023-03-17T06:04:02.524Z,10.88
2023-03-17T06:06:32.249Z,9.73
2023-03-17T06:09:01.221Z,10.27
2023-03-17T06:11:29.589Z,9.00
2023-03-17T06:13:57.746Z,8.90
2023-03-17T06:16:26.057Z,9.48
2023-03-17T06:18:54.284Z,8.77
2023-03-17T06:21:22.441Z,9.00
2023-03-17T06:23:52.150Z,9.00
2023-03-17T06:26:20.328Z,9.02
2023-03-17T06:28:48.574Z,9.70
2023-03-17T06:31:17.951Z,10.02
2023-03-17T06:33:46.189Z,10.70
2023-03-17T06:36:14.427Z,9.50
2023-03-17T06:38:42.664Z,9.82
2023-03-17T06:41:12.409Z,9.10
2023-03-17T06:43:40.638Z,9.35
2023-03-17T06:46:09.219Z,9.20
2023-03-17T06:48:38.323Z,9.68
2023-03-17T06:51:07.163Z,10.90
2023-03-17T06:53:35.588Z,11.65
2023-03-17T06:56:05.202Z,9.82
2023-03-17T06:58:34.842Z,10.75
2023-03-17T07:01:04.250Z,11.43
2023-03-17T07:03:32.813Z,11.25
2023-03-17T07:06:01.748Z,10.25
2023-03-17T07:08:30.931Z,10.35
2023-03-17T07:10:59.319Z,10.70
2023-03-17T07:13:28.080Z,9.45
2023-03-17T07:16:00.433Z,10.45
2023-03-17T07:18:29.666Z,10.60
2023-03-17T07:20:57.870Z,10.32
2023-03-17T07:23:26.248Z,10.23
2023-03-17T07:25:54.835Z,10.57
2023-03-17T07:28:23.291Z,17.70
2023-03-17T07:30:52.526Z,11.90
2023-03-17T07:33:22.285Z,8.02
2023-03-17T07:35:50.900Z,9.27
2023-03-17T07:38:20.672Z,8.60
2023-03-17T07:40:51.060Z,6.90
2023-03-17T07:43:19.401Z,8.05
2023-03-17T07:45:48.050Z,7.32
2023-03-17T07:48:16.343Z,8.80
2023-03-17T07:50:46.079Z,9.88
2023-03-17T07:53:14.505Z,8.82
2023-03-17T07:55:42.694Z,8.00
2023-03-17T07:58:13.117Z,5.90
2023-03-17T08:00:43.351Z,6.45
2023-03-17T08:03:11.544Z,8.52
2023-03-17T08:05:39.899Z,7.45
2023-03-17T08:08:10.759Z,6.53
2023-03-17T08:10:38.933Z,8.02
2023-03-17T08:13:07.769Z,8.35
2023-03-17T08:15:36.589Z,8.18
2023-03-17T08:18:05.063Z,8.50
2023-03-17T08:20:33.940Z,7.65
2023-03-17T08:23:02.541Z,7.78
2023-03-17T08:25:32.359Z,6.68
2023-03-17T08:28:00.752Z,8.02
2023-03-17T08:30:32.386Z,7.70
2023-03-17T08:33:01.787Z,7.18
2023-03-17T08:35:31.180Z,8.40
2023-03-17T08:38:00.276Z,9.13
2023-03-17T08:40:28.699Z,9.98
2023-03-17T08:42:58.642Z,6.85
2023-03-17T08:45:26.959Z,7.95
2023-03-17T08:47:55.144Z,6.55
2023-03-17T08:50:25.219Z,8.00
2023-03-17T08:52:54.345Z,7.75
2023-03-17T08:55:22.699Z,8.05
2023-03-17T08:57:51.301Z,7.57
2023-03-17T09:00:21.973Z,8.18
2023-03-17T09:02:50.507Z,8.38
2023-03-17T09:05:19.615Z,9.90
2023-03-17T09:07:49.125Z,8.68
2023-03-17T09:10:22.633Z,9.40
2023-03-17T09:12:51.647Z,8.05
2023-03-17T09:15:21.454Z,8.68
2023-03-17T09:17:49.845Z,8.35
2023-03-17T09:20:18.695Z,8.02
2023-03-17T09:22:47.795Z,7.25
2023-03-17T09:25:16.203Z,7.53
2023-03-17T09:27:44.679Z,7.10
2023-03-17T09:30:14.577Z,7.35
2023-03-17T09:32:44.971Z,8.68
2023-03-17T09:35:14.034Z,7.05
2023-03-17T09:37:42.948Z,7.85
2023-03-17T09:40:17.214Z,8.18
2023-03-17T09:42:58.176Z,7.40
2023-03-17T09:45:35.066Z,6.90
2023-03-17T09:48:26.223Z,7.10
2023-03-17T09:50:59.068Z,7.28
2023-03-17T09:53:34.305Z,7.88
2023-03-17T09:56:08.471Z,7.95
2023-03-17T09:58:38.536Z,6.05
2023-03-17T10:01:06.933Z,6.45
2023-03-17T10:03:37.481Z,5.70
2023-03-17T10:06:34.865Z,7.18
2023-03-17T10:09:12.117Z,7.50
2023-03-17T10:11:42.744Z,5.40
2023-03-17T10:14:33.820Z,5.03
2023-03-17T10:17:05.724Z,5.20
2023-03-17T10:19:42.575Z,4.25
2023-03-17T10:22:19.498Z,4.78
2023-03-17T10:24:51.365Z,5.35
2023-03-17T10:27:20.163Z,5.18
2023-03-17T10:29:48.774Z,4.68
2023-03-17T10:32:17.251Z,5.60
2023-03-17T10:34:48.946Z,6.60
2023-03-17T10:37:20.064Z,4.20
2023-03-17T10:39:50.356Z,4.95
2023-03-17T10:42:24.924Z,3.80
2023-03-17T10:44:56.288Z,3.90
2023-03-17T10:47:32.741Z,4.53
2023-03-17T10:50:17.775Z,4.20
2023-03-17T10:52:47.793Z,3.47
2023-03-17T10:55:20.477Z,5.10
2023-03-17T10:57:54.500Z,3.50
2023-03-17T11:00:24.648Z,4.38
2023-03-17T11:02:58.267Z,4.05
2023-03-17T11:05:29.755Z,4.75
2023-03-17T11:08:00.015Z,5.38
2023-03-17T11:10:30.310Z,5.40
2023-03-17T11:13:02.010Z,4.45
2023-03-17T11:15:34.922Z,3.90
2023-03-17T11:18:05.593Z,3.72
2023-03-17T11:20:47.753Z,3.67
2023-03-17T11:23:27.468Z,3.95
2023-03-17T11:26:08.122Z,8.25
2023-03-17T11:28:42.068Z,4.80
2023-03-17T11:31:16.681Z,4.70
2023-03-17T11:33:53.383Z,4.50
2023-03-17T11:36:37.430Z,3.80
2023-03-17T11:39:13.845Z,3.83
2023-03-17T11:42:00.853Z,3.67
2023-03-17T11:44:59.955Z,4.07
2023-03-17T11:47:42.921Z,4.00
2023-03-17T11:50:23.338Z,4.10
2023-03-17T11:53:12.153Z,5.07
2023-03-17T11:55:46.518Z,4.13
2023-03-17T11:58:24.994Z,5.43
2023-03-17T12:00:58.073Z,4.88
2023-03-17T12:03:33.420Z,4.88
2023-03-17T12:06:05.711Z,4.95
2023-03-17T12:08:40.381Z,4.53
2023-03-17T12:11:13.472Z,3.90
2023-03-17T12:13:46.708Z,3.35
2023-03-17T12:16:18.562Z,2.90
2023-03-17T12:18:56.809Z,2.70
2023-03-17T12:21:31.059Z,2.60
2023-03-17T12:24:04.218Z,3.87
2023-03-17T12:26:38.769Z,3.13
2023-03-17T12:29:13.437Z,3.40
2023-03-17T12:31:46.940Z,3.37
2023-03-17T12:34:22.236Z,3.87
2023-03-17T12:36:51.496Z,3.43
2023-03-17T12:39:28.417Z,5.27
2023-03-17T12:42:11.018Z,3.20
2023-03-17T12:44:57.744Z,2.23
2023-03-17T12:47:46.927Z,2.23
2023-03-17T12:50:49.173Z,2.27
2023-03-17T12:53:27.530Z,2.30
2023-03-17T12:56:01.433Z,2.47
2023-03-17T12:58:37.167Z,2.90
2023-03-17T13:01:17.361Z,2.30
2023-03-17T13:04:02.465Z,2.60
2023-03-17T13:06:32.812Z,1.70
2023-03-17T13:09:31.398Z,1.73
2023-03-17T13:12:02.326Z,2.23
2023-03-17T13:14:43.239Z,2.90
2023-03-17T13:17:34.868Z,2.73
2023-03-17T13:20:15.857Z,2.33
2023-03-17T13:23:03.652Z,2.60
2023-03-17T13:25:35.043Z,2.67
2023-03-17T13:28:24.323Z,2.30
2023-03-17T13:31:08.831Z,2.50
2023-03-17T13:33:42.236Z,2.43
2023-03-17T13:36:31.617Z,2.70
2023-03-17T13:39:20.502Z,2.45
2023-03-17T13:42:18.695Z,3.10
2023-03-17T13:45:10.204Z,2.78
2023-03-17T13:47:42.266Z,2.72
2023-03-17T13:50:16.146Z,3.50
2023-03-17T13:52:49.727Z,3.28
2023-03-17T13:55:40.987Z,2.70
2023-03-17T13:58:26.121Z,3.20
2023-03-17T14:01:03.876Z,2.80
2023-03-17T14:03:41.791Z,3.08
2023-03-17T14:06:13.809Z,3.10
2023-03-17T14:08:47.877Z,3.20
2023-03-17T14:11:25.947Z,3.80
2023-03-17T14:14:04.894Z,3.47
2023-03-17T14:16:38.754Z,3.30
2023-03-17T14:19:17.630Z,2.85
2023-03-17T14:21:45.915Z,2.88
2023-03-17T14:24:22.291Z,3.08
2023-03-17T14:26:51.718Z,2.33
2023-03-17T14:29:23.169Z,2.78
2023-03-17T14:32:03.697Z,2.33
2023-03-17T14:34:32.409Z,3.05
2023-03-17T14:37:03.596Z,3.92
2023-03-17T14:39:32.257Z,2.53
2023-03-17T14:42:02.553Z,2.95
2023-03-17T14:44:38.246Z,3.70
2023-03-17T14:47:15.847Z,2.80
2023-03-17T14:49:44.817Z,2.75
2023-03-17T14:52:22.445Z,3.15
2023-03-17T14:54:53.692Z,3.00
2023-03-17T14:57:24.833Z,3.20
2023-03-17T15:00:01.041Z,3.63
2023-03-17T15:02:34.390Z,3.15
2023-03-17T15:05:06.714Z,3.80
2023-03-17T15:07:39.724Z,3.60
2023-03-17T15:10:15.805Z,3.60
2023-03-17T15:12:46.251Z,3.45
2023-03-17T15:15:23.670Z,3.22
2023-03-17T15:17:56.923Z,3.80
2023-03-17T15:20:25.789Z,3.65
2023-03-17T15:23:00.090Z,3.42
2023-03-17T15:25:35.503Z,3.78
2023-03-17T15:28:03.715Z,4.70
2023-03-17T15:30:46.229Z,4.15
2023-03-17T15:33:22.783Z,3.85
2023-03-17T15:35:51.801Z,4.63
2023-03-17T15:38:20.097Z,4.82
2023-03-17T15:40:48.824Z,4.78
2023-03-17T15:43:17.989Z,5.05
2023-03-17T15:45:47.274Z,4.60
2023-03-17T15:48:23.657Z,5.38
2023-03-17T15:50:52.787Z,6.03
2023-03-17T15:53:21.290Z,5.00
2023-03-17T15:55:49.828Z,5.30
2023-03-17T15:58:18.055Z,5.20
2023-03-17T16:00:49.904Z,5.45
2023-03-17T16:03:25.726Z,5.15
2023-03-17T16:05:54.175Z,4.97
2023-03-17T16:08:23.208Z,5.40
2023-03-17T16:10:52.114Z,5.20
2023-03-17T16:13:20.777Z,5.15
2023-03-17T16:16:05.456Z,4.82
2023-03-17T16:18:37.704Z,6.18
2023-03-17T16:21:06.540Z,5.90
2023-03-17T16:23:37.662Z,5.75
2023-03-17T16:26:14.766Z,5.35
2023-03-17T16:28:45.430Z,5.38
2023-03-17T16:31:20.799Z,4.60
2023-03-17T16:33:51.588Z,4.93
2023-03-17T16:36:21.730Z,5.40
2023-03-17T16:38:50.437Z,4.90
2023-03-17T16:41:21.070Z,5.20
2023-03-17T16:43:55.268Z,5.85
2023-03-17T16:46:24.136Z,5.25
2023-03-17T16:48:53.804Z,5.47
2023-03-17T16:51:22.135Z,6.07
2023-03-17T16:53:50.543Z,4.93
2023-03-17T16:56:20.648Z,6.60
2023-03-17T16:58:49.920Z,6.60
2023-03-17T17:01:20.718Z,6.45
2023-03-17T17:03:49.641Z,6.32
2023-03-17T17:06:20.842Z,7.82
2023-03-17T17:08:51.203Z,6.68
2023-03-17T17:11:20.469Z,6.47
2023-03-17T17:13:51.776Z,6.18
2023-03-17T17:16:24.485Z,7.95
2023-03-17T17:18:53.385Z,6.85
2023-03-17T17:21:23.221Z,7.20
2023-03-17T17:23:53.014Z,6.75
2023-03-17T17:26:22.078Z,8.90
2023-03-17T17:28:50.686Z,8.10
2023-03-17T17:31:18.944Z,8.00
2023-03-17T17:33:47.251Z,9.68
2023-03-17T17:36:17.408Z,8.50
2023-03-17T17:38:47.290Z,12.30
2023-03-17T17:41:17.041Z,13.80
2023-03-17T17:43:46.307Z,11.90
2023-03-17T17:46:18.425Z,13.50
2023-03-17T17:48:47.048Z,13.88
2023-03-17T17:51:15.643Z,14.07
2023-03-17T17:53:44.006Z,13.30
2023-03-17T17:56:15.958Z,10.85
2023-03-17T17:58:44.563Z,10.88
2023-03-17T18:01:14.218Z,12.48
2023-03-17T18:03:43.191Z,13.23
2023-03-17T18:06:13.149Z,11.35
2023-03-17T18:08:43.572Z,14.68
2023-03-17T18:11:11.986Z,13.80
2023-03-17T18:13:41.997Z,13.60
2023-03-17T18:16:13.978Z,12.27
2023-03-17T18:18:45.301Z,12.98
2023-03-17T18:21:14.072Z,9.68
2023-03-17T18:23:46.916Z,11.50
2023-03-17T18:26:17.364Z,12.75
2023-03-17T18:28:47.843Z,12.15
2023-03-17T18:31:21.723Z,12.82
2023-03-17T18:33:53.170Z,13.27
2023-03-17T18:36:22.416Z,13.27
2023-03-17T18:38:50.644Z,12.20
2023-03-17T18:41:19.012Z,13.10
2023-03-17T18:43:48.569Z,14.15
2023-03-17T18:46:17.385Z,14.05
2023-03-17T18:48:45.706Z,14.80
2023-03-17T18:51:13.893Z,13.60
2023-03-17T18:53:42.163Z,13.23
2023-03-17T18:56:10.890Z,14.68
2023-03-17T18:58:39.228Z,14.23
2023-03-17T19:01:08.965Z,14.30
2023-03-17T19:03:37.313Z,16.05
2023-03-17T19:06:10.807Z,15.90
2023-03-17T19:08:39.136Z,18.02
2023-03-17T19:11:08.984Z,17.85
2023-03-17T19:13:37.847Z,20.23
2023-03-17T19:16:09.350Z,17.92
2023-03-17T19:18:41.409Z,17.98
2023-03-17T19:21:11.661Z,17.77
2023-03-17T19:23:41.446Z,19.73
2023-03-17T19:26:10.453Z,19.95
2023-03-17T19:28:38.828Z,23.35
2023-03-17T19:31:09.406Z,22.05
2023-03-17T19:33:38.135Z,21.05
2023-03-17T19:36:09.091Z,20.58
2023-03-17T19:38:37.722Z,18.58
2023-03-17T19:41:06.773Z,19.48
2023-03-17T19:43:40.864Z,18.95
2023-03-17T19:46:12.517Z,17.45
2023-03-17T19:48:42.064Z,19.45
2023-03-17T19:51:10.508Z,22.08
2023-03-17T19:53:39.123Z,24.42
2023-03-17T19:56:08.548Z,16.02
2023-03-17T19:58:37.015Z,19.48
2023-03-17T20:01:06.961Z,21.25
2023-03-17T20:03:39.342Z,22.52
2023-03-17T20:06:07.666Z,18.70
2023-03-17T20:08:36.865Z,18.52
2023-03-17T20:11:06.775Z,19.13
2023-03-17T20:13:36.331Z,20.02
2023-03-17T20:16:05.825Z,21.42
2023-03-17T20:18:34.140Z,17.65
2023-03-17T20:21:05.807Z,20.73
2023-03-17T20:23:34.522Z,23.65
2023-03-17T20:26:03.700Z,23.77
2023-03-17T20:28:32.625Z,19.83
2023-03-17T20:31:03.037Z,20.55
2023-03-17T20:33:33.435Z,19.77
2023-03-17T20:36:04.732Z,20.10
2023-03-17T20:38:36.917Z,18.25
2023-03-17T20:41:10.179Z,17.83
2023-03-17T20:43:39.100Z,17.00
2023-03-17T20:46:09.052Z,16.55
2023-03-17T20:48:38.026Z,16.33
2023-03-17T20:51:10.161Z,16.95
2023-03-17T20:53:38.934Z,16.20
2023-03-17T20:56:08.604Z,14.00
2023-03-17T20:58:36.996Z,16.55
2023-03-17T21:01:05.485Z,19.50
2023-03-17T21:03:33.740Z,29.52
2023-03-17T21:06:02.084Z,28.75
2023-03-17T21:08:31.907Z,25.20
2023-03-17T21:11:00.093Z,26.65
2023-03-17T21:13:28.456Z,32.83
2023-03-17T21:15:56.995Z,34.35
2023-03-17T21:18:25.265Z,35.25
2023-03-17T21:20:53.467Z,33.08
2023-03-17T21:23:21.929Z,32.55
2023-03-17T21:25:55.249Z,29.63
2023-03-17T21:28:23.836Z,31.05
2023-03-17T21:30:52.782Z,30.35
2023-03-17T21:33:21.463Z,31.20
2023-03-17T21:35:49.749Z,25.92
2023-03-17T21:38:18.026Z,26.48
2023-03-17T21:40:46.398Z,24.20
2023-03-17T21:43:16.386Z,22.73
2023-03-17T21:45:44.756Z,24.00
2023-03-17T21:48:14.189Z,27.83
2023-03-17T21:50:42.612Z,28.10
2023-03-17T21:53:11.073Z,28.98
2023-03-17T21:55:39.419Z,29.40
2023-03-17T21:58:08.207Z,29.50
2023-03-17T22:00:45.112Z,21.52
2023-03-17T22:03:14.106Z,19.13
2023-03-17T22:05:42.340Z,20.02
2023-03-17T22:08:10.579Z,19.92
2023-03-17T22:10:40.284Z,21.17
2023-03-17T22:13:08.548Z,23.98
2023-03-17T22:15:38.196Z,26.85
2023-03-17T22:18:06.645Z,27.70
2023-03-17T22:20:34.876Z,27.42
2023-03-17T22:23:03.344Z,27.70
2023-03-17T22:25:31.586Z,30.90
2023-03-17T22:28:00.247Z,26.48
2023-03-17T22:30:28.633Z,28.23
2023-03-17T22:32:58.261Z,25.42
2023-03-17T22:35:27.268Z,26.38
2023-03-17T22:37:55.602Z,26.33
2023-03-17T22:40:23.819Z,24.60
2023-03-17T22:42:52.110Z,26.75
2023-03-17T22:45:20.349Z,26.23
2023-03-17T22:47:48.551Z,24.95
2023-03-17T22:50:18.976Z,23.50
2023-03-17T22:52:47.226Z,24.65
2023-03-17T22:55:15.784Z,24.80
2023-03-17T22:57:44.042Z,25.10
2023-03-17T23:00:16.783Z,23.02
2023-03-17T23:02:46.081Z,28.42
2023-03-17T23:05:16.036Z,27.40
2023-03-17T23:07:50.775Z,36.25
2023-03-17T23:10:23.095Z,31.75
2023-03-17T23:12:52.321Z,32.13
2023-03-17T23:15:21.131Z,33.00
2023-03-17T23:17:49.423Z,32.38
2023-03-17T23:20:17.884Z,30.92
2023-03-17T23:22:47.706Z,29.25
2023-03-17T23:25:16.305Z,30.23
2023-03-17T23:27:44.921Z,31.73
2023-03-17T23:30:14.385Z,34.20
2023-03-17T23:32:43.351Z,32.65
2023-03-17T23:35:12.782Z,34.90
2023-03-17T23:37:41.539Z,35.72
2023-03-17T23:40:14.113Z,37.10
2023-03-17T23:42:42.523Z,36.17
2023-03-17T23:45:11.898Z,38.53
2023-03-17T23:47:40.543Z,34.50
2023-03-17T23:50:09.924Z,34.00
2023-03-17T23:52:38.224Z,34.22
2023-03-17T23:55:07.940Z,31.55
2023-03-17T23:57:37.886Z,33.50
